Time;durP1;ratioP1;P1;durP2;ratioP2;P2;SDS_P1;SDS_P2;PMS_P1;PMS_P2;Temp;Humidity;BMP_temperature;BMP_pressure;BME280_temperature;BME280_humidity;BME280_pressure;Samples;Min_cycle;Max_cycle;Signal;HPM_P1;HPM_P2
2023/06/14 00:00:56;;;;;;;;;;;;;;;13.44;69.22;95402.50;5070624;28;19982;-72
2023/06/14 00:03:24;;;;;;;;;;;;;;;13.39;69.84;95404.66;5065868;28;20015;-72
2023/06/14 00:05:50;;;;;;;;;;;;;;;13.31;71.06;95396.59;5063095;28;19925;-72
2023/06/14 00:08:18;;;;;;;;;;;;;;;13.22;72.10;95399.91;5065799;28;19954;-72
2023/06/14 00:10:46;;;;;;;;;;;;;;;13.23;71.22;95398.94;5068519;28;19936;-72
2023/06/14 00:13:12;;;;;;;;;;;;;;;13.19;70.92;95403.56;5057756;28;19928;-72
2023/06/14 00:15:39;;;;;;;;;;;;;;;13.10;71.50;95396.50;5051655;28;19933;-72
2023/06/14 00:18:06;;;;;;;;;;;;;;;13.08;71.33;95401.81;5053169;28;19947;-72
2023/06/14 00:20:33;;;;;;;;;;;;;;;13.07;71.32;95396.75;5071559;28;20417;-72
2023/06/14 00:22:59;;;;;;;;;;;;;;;13.00;72.68;95395.56;5066364;28;20008;-72
2023/06/14 00:25:26;;;;;;;;;;;;;;;12.98;73.36;95395.69;5063200;28;19932;-73
2023/06/14 00:27:54;;;;;;;;;;;;;;;12.79;75.17;95401.50;5075629;28;19924;-72
2023/06/14 00:30:20;;;;;;;;;;;;;;;12.68;75.80;95391.13;5074689;28;19929;-71
2023/06/14 00:32:47;;;;;;;;;;;;;;;12.73;74.73;95395.94;5067470;28;19932;-72
2023/06/14 00:35:14;;;;;;;;;;;;;;;12.88;72.74;95396.53;5069895;28;19928;-72
2023/06/14 00:37:40;;;;;;;;;;;;;;;12.95;73.82;95401.13;5070419;28;20374;-72
2023/06/14 00:40:07;;;;;;;;;;;;;;;12.92;74.03;95390.97;5062376;28;19987;-72
2023/06/14 00:42:34;;;;;;;;;;;;;;;12.77;74.96;95393.00;5065767;28;20416;-72
2023/06/14 00:45:01;;;;;;;;;;;;;;;12.71;75.03;95393.47;5068274;28;19993;-72
2023/06/14 00:47:28;;;;;;;;;;;;;;;12.62;76.11;95401.97;5070441;28;19928;-72
2023/06/14 00:49:54;;;;;;;;;;;;;;;12.65;75.73;95398.31;5067315;28;20397;-72
2023/06/14 00:52:21;;;;;;;;;;;;;;;12.59;76.47;95389.22;5057930;28;19929;-72
2023/06/14 00:54:48;;;;;;;;;;;;;;;12.58;75.77;95403.97;5063346;28;19936;-72
2023/06/14 00:57:14;;;;;;;;;;;;;;;12.60;75.74;95398.66;5065328;28;19929;-71
2023/06/14 00:59:43;;;;;;;;;;;;;;;12.43;76.70;95399.13;5069129;28;20408;-71
2023/06/14 01:02:11;;;;;;;;;;;;;;;12.34;78.84;95405.84;5062513;28;20631;-71
2023/06/14 01:04:37;;;;;;;;;;;;;;;12.58;77.34;95398.78;5075610;28;20345;-71
2023/06/14 01:07:13;;;;;;;;;;;;;;;12.69;76.71;95394.53;5067346;28;19928;-71
2023/06/14 01:09:47;;;;;;;;;;;;;;;12.79;76.74;95396.31;5060459;28;20054;-71
2023/06/14 01:12:16;;;;;;;;;;;;;;;12.76;75.96;95393.94;5075773;28;19928;-71
2023/06/14 01:14:42;;;;;;;;;;;;;;;12.48;77.60;95402.19;5067363;28;19929;-71
2023/06/14 01:17:16;;;;;;;;;;;;;;;12.30;77.82;95414.78;5073991;28;20318;-71
2023/06/14 01:19:44;;;;;;;;;;;;;;;12.13;80.13;95408.28;5071721;28;20449;-71
2023/06/14 01:22:10;;;;;;;;;;;;;;;12.09;77.29;95404.28;5072565;28;19930;-71
2023/06/14 01:24:39;;;;;;;;;;;;;;;11.92;79.00;95402.09;5066783;28;20394;-71
2023/06/14 01:27:06;;;;;;;;;;;;;;;12.01;78.04;95414.38;5068313;28;19924;-71
2023/06/14 01:29:36;;;;;;;;;;;;;;;11.96;78.83;95403.50;5074358;28;19936;-71
2023/06/14 01:32:02;;;;;;;;;;;;;;;11.92;79.05;95409.88;5070942;28;20297;-71
2023/06/14 01:34:29;;;;;;;;;;;;;;;12.01;78.61;95409.19;5070300;28;19936;-71
2023/06/14 01:36:55;;;;;;;;;;;;;;;11.97;80.41;95408.56;5073577;28;19929;-71
2023/06/14 01:39:23;;;;;;;;;;;;;;;11.74;82.61;95417.22;5070248;28;19986;-71
2023/06/14 01:41:52;;;;;;;;;;;;;;;11.77;82.07;95404.84;5072449;28;19929;-71
2023/06/14 01:44:21;;;;;;;;;;;;;;;11.75;82.10;95411.06;5069601;28;21288;-71
2023/06/14 01:46:47;;;;;;;;;;;;;;;11.70;82.70;95400.22;5073420;28;19924;-71
2023/06/14 01:49:14;;;;;;;;;;;;;;;11.66;83.42;95404.78;5072802;28;19928;-71
2023/06/14 01:51:40;;;;;;;;;;;;;;;11.66;83.05;95402.19;5067752;28;19931;-71
2023/06/14 01:54:06;;;;;;;;;;;;;;;11.69;82.67;95404.56;5070513;28;19995;-70
2023/06/14 01:56:33;;;;;;;;;;;;;;;11.77;82.27;95401.41;5062593;28;19931;-71
2023/06/14 01:59:00;;;;;;;;;;;;;;;11.88;81.80;95403.25;5068493;28;20020;-71
2023/06/14 02:01:27;;;;;;;;;;;;;;;11.86;82.10;95400.75;5072425;28;19925;-71
2023/06/14 02:03:53;;;;;;;;;;;;;;;11.81;82.88;95402.84;5072366;28;20413;-71
2023/06/14 02:06:19;;;;;;;;;;;;;;;11.74;83.95;95399.03;5072728;28;20372;-71
2023/06/14 02:08:46;;;;;;;;;;;;;;;11.45;86.25;95406.34;5072166;28;19924;-71
2023/06/14 02:11:12;;;;;;;;;;;;;;;11.45;84.93;95403.75;5069602;28;20382;-71
2023/06/14 02:13:38;;;;;;;;;;;;;;;11.56;83.93;95403.81;5068634;28;19981;-71
2023/06/14 02:16:06;;;;;;;;;;;;;;;11.53;84.43;95406.59;5068190;28;20271;-71
2023/06/14 02:18:33;;;;;;;;;;;;;;;11.55;84.35;95400.38;5078700;28;19932;-71
2023/06/14 02:20:59;;;;;;;;;;;;;;;11.46;84.19;95408.84;5064244;28;20016;-71
2023/06/14 02:23:25;;;;;;;;;;;;;;;11.31;84.83;95410.78;5071593;28;19924;-71
2023/06/14 02:25:51;;;;;;;;;;;;;;;11.01;88.10;95405.13;5080157;28;19925;-71
2023/06/14 02:28:18;;;;;;;;;;;;;;;11.01;88.63;95397.38;5073055;28;20238;-70
2023/06/14 02:30:44;;;;;;;;;;;;;;;11.00;87.88;95406.91;5072591;28;19931;-71
2023/06/14 02:33:12;;;;;;;;;;;;;;;10.84;88.46;95406.34;5072718;28;19974;-71
2023/06/14 02:35:39;;;;;;;;;;;;;;;10.75;89.51;95401.78;5066110;28;19924;-71
2023/06/14 02:38:05;;;;;;;;;;;;;;;10.71;90.81;95403.75;5067174;28;19924;-71
2023/06/14 02:40:31;;;;;;;;;;;;;;;10.70;91.02;95403.88;5070833;28;19931;-71
2023/06/14 02:42:58;;;;;;;;;;;;;;;10.79;90.59;95401.47;5071258;28;20625;-71
2023/06/14 02:45:24;;;;;;;;;;;;;;;10.90;88.97;95403.28;5070703;28;19924;-71
2023/06/14 02:47:51;;;;;;;;;;;;;;;10.97;89.04;95406.28;5061938;28;20012;-71
2023/06/14 02:50:21;;;;;;;;;;;;;;;10.96;88.62;95402.06;5069141;28;19924;-70
2023/06/14 02:52:47;;;;;;;;;;;;;;;10.92;88.99;95403.22;5066658;28;19931;-71
2023/06/14 02:55:13;;;;;;;;;;;;;;;10.90;88.95;95396.38;5064257;28;19929;-71
2023/06/14 02:57:40;;;;;;;;;;;;;;;10.92;88.69;95390.25;5070536;28;19928;-71
2023/06/14 03:00:09;;;;;;;;;;;;;;;11.02;88.14;95397.28;5067768;28;19924;-71
2023/06/14 03:02:35;;;;;;;;;;;;;;;11.10;88.12;95401.91;5068328;28;20389;-71
2023/06/14 03:05:03;;;;;;;;;;;;;;;11.03;87.99;95396.34;5070374;28;19925;-71
2023/06/14 03:07:31;;;;;;;;;;;;;;;10.97;90.31;95393.34;5073772;28;19932;-71
2023/06/14 03:09:57;;;;;;;;;;;;;;;11.01;89.42;95392.19;5070981;28;19925;-71
2023/06/14 03:12:23;;;;;;;;;;;;;;;10.98;89.66;95395.00;5066501;28;20595;-71
2023/06/14 03:14:50;;;;;;;;;;;;;;;10.94;90.49;95399.59;5075911;28;20450;-70
2023/06/14 03:17:17;;;;;;;;;;;;;;;11.02;89.86;95399.88;5060270;28;20305;-70
2023/06/14 03:19:43;;;;;;;;;;;;;;;11.04;89.42;95400.56;5064785;28;20007;-71
2023/06/14 03:22:11;;;;;;;;;;;;;;;11.10;88.84;95401.91;5072502;28;19935;-71
2023/06/14 03:24:39;;;;;;;;;;;;;;;11.06;90.29;95408.25;5060925;28;19924;-71
2023/06/14 03:27:06;;;;;;;;;;;;;;;11.05;89.55;95410.03;5070575;28;19928;-71
2023/06/14 03:29:32;;;;;;;;;;;;;;;11.05;89.74;95412.63;5073566;28;19942;-71
2023/06/14 03:31:59;;;;;;;;;;;;;;;11.07;89.29;95412.50;5067059;28;19928;-71
2023/06/14 03:34:25;;;;;;;;;;;;;;;11.00;89.80;95421.63;5073179;28;19924;-71
2023/06/14 03:36:51;;;;;;;;;;;;;;;10.93;89.30;95420.41;5071468;28;20333;-71
2023/06/14 03:39:18;;;;;;;;;;;;;;;10.80;90.12;95420.44;5069659;28;19940;-71
2023/06/14 03:41:45;;;;;;;;;;;;;;;10.64;90.95;95420.66;5068701;28;19932;-71
2023/06/14 03:44:12;;;;;;;;;;;;;;;10.51;91.33;95420.66;5069003;28;19924;-71
2023/06/14 03:46:38;;;;;;;;;;;;;;;10.34;91.59;95426.16;5060227;28;19936;-71
2023/06/14 03:49:04;;;;;;;;;;;;;;;10.14;93.84;95430.88;5066734;28;19971;-71
2023/06/14 03:51:31;;;;;;;;;;;;;;;10.11;94.38;95427.66;5066469;28;19928;-71
2023/06/14 03:53:57;;;;;;;;;;;;;;;10.11;95.02;95435.41;5069558;28;19924;-71
2023/06/14 03:56:23;;;;;;;;;;;;;;;10.12;94.36;95443.09;5065589;28;19931;-71
2023/06/14 03:58:51;;;;;;;;;;;;;;;10.11;96.03;95444.00;5065372;28;19924;-71
2023/06/14 04:01:17;;;;;;;;;;;;;;;9.99;97.14;95447.41;5069757;28;19931;-71
2023/06/14 04:03:43;;;;;;;;;;;;;;;10.02;99.85;95449.81;5067517;28;19929;-71
2023/06/14 04:06:10;;;;;;;;;;;;;;;10.16;98.14;95449.72;5069162;28;19925;-72
2023/06/14 04:08:36;;;;;;;;;;;;;;;10.24;97.66;95451.81;5069871;28;19928;-71
2023/06/14 04:11:02;;;;;;;;;;;;;;;10.23;99.67;95455.31;5068199;28;19924;-71
2023/06/14 04:13:29;;;;;;;;;;;;;;;10.11;100.00;95456.13;5069425;28;19974;-71
2023/06/14 04:15:56;;;;;;;;;;;;;;;10.16;100.00;95462.66;5062469;28;19929;-72
2023/06/14 04:18:23;;;;;;;;;;;;;;;10.32;100.00;95461.69;5069333;28;19978;-72
2023/06/14 04:20:50;;;;;;;;;;;;;;;10.51;100.00;95461.28;5071765;28;20313;-72
2023/06/14 04:23:17;;;;;;;;;;;;;;;10.65;100.00;95464.59;5070359;28;19970;-72
2023/06/14 04:25:44;;;;;;;;;;;;;;;10.71;100.00;95465.91;5071930;28;20413;-72
2023/06/14 04:28:11;;;;;;;;;;;;;;;10.77;100.00;95468.09;5073833;28;19951;-71
2023/06/14 04:30:38;;;;;;;;;;;;;;;10.81;100.00;95472.13;5068962;28;19932;-71
2023/06/14 04:33:06;;;;;;;;;;;;;;;10.81;100.00;95469.53;5055074;28;20382;-71
2023/06/14 04:35:32;;;;;;;;;;;;;;;10.87;100.00;95469.13;5068944;28;20278;-71
2023/06/14 04:37:59;;;;;;;;;;;;;;;10.94;100.00;95460.91;5063882;28;19951;-69
2023/06/14 04:40:25;;;;;;;;;;;;;;;11.04;100.00;95464.53;5071839;28;19928;-73
2023/06/14 04:42:52;;;;;;;;;;;;;;;11.21;99.54;95471.16;5071458;28;19928;-72
2023/06/14 04:45:19;;;;;;;;;;;;;;;11.32;99.78;95459.09;5062168;28;19929;-71
2023/06/14 04:47:46;;;;;;;;;;;;;;;11.50;99.32;95466.50;5066109;28;19968;-71
2023/06/14 04:50:13;;;;;;;;;;;;;;;11.50;100.00;95458.72;5073855;28;19924;-71
2023/06/14 04:52:40;;;;;;;;;;;;;;;11.68;98.15;95465.19;5070624;28;20034;-71
2023/06/14 04:55:07;;;;;;;;;;;;;;;11.75;99.07;95475.94;5074064;28;19930;-71
2023/06/14 04:57:34;;;;;;;;;;;;;;;11.82;99.23;95471.94;5071884;28;19928;-71
2023/06/14 05:00:05;;;;;;;;;;;;;;;11.86;100.00;95471.69;5070869;28;19928;-71
2023/06/14 05:02:31;;;;;;;;;;;;;;;11.95;97.84;95479.72;5063536;28;19940;-71
2023/06/14 05:04:59;;;;;;;;;;;;;;;12.14;98.96;95487.81;5065603;28;19928;-71
2023/06/14 05:07:26;;;;;;;;;;;;;;;12.10;88.43;95486.38;5066066;28;19929;-71
2023/06/14 05:09:52;;;;;;;;;;;;;;;12.22;90.02;95479.47;5071248;28;19932;-71
2023/06/14 05:12:19;;;;;;;;;;;;;;;12.53;89.36;95483.19;5071905;28;19928;-71
2023/06/14 05:14:45;;;;;;;;;;;;;;;12.71;87.99;95483.56;5071003;28;19932;-71
2023/06/14 05:17:11;;;;;;;;;;;;;;;12.77;86.63;95489.16;5072063;28;20406;-72
2023/06/14 05:19:38;;;;;;;;;;;;;;;12.80;87.18;95485.50;5075825;28;19928;-71
2023/06/14 05:22:04;;;;;;;;;;;;;;;13.06;86.52;95478.28;5061327;28;19932;-71
2023/06/14 05:24:32;;;;;;;;;;;;;;;13.32;85.43;95487.53;5063662;28;19932;-71
2023/06/14 05:26:58;;;;;;;;;;;;;;;13.50;82.43;95489.66;5069611;28;19971;-71
2023/06/14 05:29:24;;;;;;;;;;;;;;;13.58;82.14;95481.22;5070958;28;19955;-71
2023/06/14 05:31:51;;;;;;;;;;;;;;;13.80;83.53;95492.41;5069980;28;20030;-71
2023/06/14 05:34:17;;;;;;;;;;;;;;;14.02;83.77;95490.69;5072938;28;19928;-71
2023/06/14 05:36:43;;;;;;;;;;;;;;;14.28;86.85;95493.78;5065724;28;20336;-71
2023/06/14 05:39:10;;;;;;;;;;;;;;;14.49;93.10;95499.84;5071960;28;19928;-71
2023/06/14 05:41:37;;;;;;;;;;;;;;;14.76;94.88;95491.53;5069721;28;19925;-71
2023/06/14 05:44:04;;;;;;;;;;;;;;;14.85;92.62;95496.91;5071754;28;19931;-72
2023/06/14 05:46:30;;;;;;;;;;;;;;;14.98;88.11;95503.56;5072920;28;19947;-72
2023/06/14 05:48:56;;;;;;;;;;;;;;;14.94;79.12;95501.34;5071797;28;19929;-72
2023/06/14 05:51:24;;;;;;;;;;;;;;;15.03;75.38;95505.78;5069842;28;20037;-72
2023/06/14 05:53:51;;;;;;;;;;;;;;;15.06;75.56;95504.72;5061814;28;19957;-72
2023/06/14 05:56:18;;;;;;;;;;;;;;;15.35;77.36;95504.81;5066869;28;19931;-72
2023/06/14 05:58:46;;;;;;;;;;;;;;;15.58;77.12;95502.84;5066742;28;19966;-72
2023/06/14 06:01:13;;;;;;;;;;;;;;;15.75;75.03;95504.81;5068531;28;19929;-71
2023/06/14 06:03:39;;;;;;;;;;;;;;;15.97;81.80;95509.81;5060810;28;19925;-72
2023/06/14 06:06:05;;;;;;;;;;;;;;;16.26;81.84;95513.41;5066878;28;19970;-72
2023/06/14 06:08:32;;;;;;;;;;;;;;;16.34;76.04;95516.97;5067948;28;19943;-71
2023/06/14 06:10:59;;;;;;;;;;;;;;;16.57;77.20;95520.13;5067786;28;19991;-71
2023/06/14 06:13:26;;;;;;;;;;;;;;;16.76;75.63;95521.94;5059012;28;19975;-72
2023/06/14 06:15:53;;;;;;;;;;;;;;;16.92;74.50;95519.56;5071415;28;20381;-72
2023/06/14 06:18:19;;;;;;;;;;;;;;;17.11;76.77;95526.53;5066152;28;19994;-72
2023/06/14 06:20:47;;;;;;;;;;;;;;;17.42;68.20;95518.44;5065932;28;19931;-72
2023/06/14 06:23:13;;;;;;;;;;;;;;;17.53;69.13;95523.47;5071684;28;19951;-72
2023/06/14 06:25:39;;;;;;;;;;;;;;;17.15;61.95;95516.59;5072474;28;20329;-72
2023/06/14 06:28:06;;;;;;;;;;;;;;;17.18;64.96;95517.16;5062619;28;19925;-72
2023/06/14 06:30:32;;;;;;;;;;;;;;;17.38;61.73;95519.69;5071868;28;19932;-72
2023/06/14 06:32:59;;;;;;;;;;;;;;;17.85;66.16;95523.06;5071332;28;19928;-72
2023/06/14 06:35:26;;;;;;;;;;;;;;;18.11;67.13;95522.38;5072263;28;19930;-71
2023/06/14 06:37:52;;;;;;;;;;;;;;;18.33;61.52;95519.31;5067170;28;19932;-72
2023/06/14 06:40:19;;;;;;;;;;;;;;;18.61;62.05;95521.81;5063246;28;20044;-72
2023/06/14 06:42:45;;;;;;;;;;;;;;;18.73;61.83;95536.41;5071796;28;19928;-72
2023/06/14 06:45:11;;;;;;;;;;;;;;;18.83;61.24;95521.38;5069594;28;20441;-72
2023/06/14 06:47:38;;;;;;;;;;;;;;;19.02;57.50;95527.41;5064049;28;20028;-70
2023/06/14 06:50:07;;;;;;;;;;;;;;;18.99;58.45;95531.19;5068069;28;19986;-71
2023/06/14 06:52:33;;;;;;;;;;;;;;;19.10;56.19;95528.28;5068316;28;19978;-71
2023/06/14 06:55:00;;;;;;;;;;;;;;;19.40;53.89;95534.03;5071485;28;20274;-71
2023/06/14 06:57:28;;;;;;;;;;;;;;;19.50;52.83;95539.97;5069269;28;19929;-68
2023/06/14 06:59:55;;;;;;;;;;;;;;;19.59;48.73;95543.50;5071137;28;19975;-73
2023/06/14 07:02:21;;;;;;;;;;;;;;;19.23;50.07;95545.44;5067132;28;19971;-72
2023/06/14 07:04:47;;;;;;;;;;;;;;;19.16;51.67;95542.59;5070444;28;19928;-74
2023/06/14 07:07:15;;;;;;;;;;;;;;;19.55;52.16;95542.97;5061416;28;20394;-74
2023/06/14 07:09:41;;;;;;;;;;;;;;;18.96;52.95;95547.22;5060027;28;20286;-74
2023/06/14 07:12:08;;;;;;;;;;;;;;;19.66;52.39;95543.72;5068071;28;19978;-73
2023/06/14 07:14:34;;;;;;;;;;;;;;;20.06;50.88;95535.97;5066232;28;19925;-71
2023/06/14 07:17:00;;;;;;;;;;;;;;;19.93;46.19;95538.22;5070922;28;20406;-72
2023/06/14 07:19:27;;;;;;;;;;;;;;;20.27;47.39;95547.84;5061701;28;19935;-73
2023/06/14 07:21:53;;;;;;;;;;;;;;;20.51;48.12;95542.66;5068156;28;19939;-73
2023/06/14 07:24:22;;;;;;;;;;;;;;;20.92;44.29;95541.84;5069245;28;20036;-73
2023/06/14 07:26:48;;;;;;;;;;;;;;;21.02;41.41;95545.09;5067349;28;20007;-73
2023/06/14 07:29:16;;;;;;;;;;;;;;;21.21;46.81;95544.78;5070595;28;20024;-73
2023/06/14 07:31:42;;;;;;;;;;;;;;;21.19;43.09;95552.00;5068716;28;19935;-73
2023/06/14 07:34:09;;;;;;;;;;;;;;;21.41;39.48;95550.53;5067254;28;19928;-73
2023/06/14 07:36:36;;;;;;;;;;;;;;;21.41;43.29;95550.53;5065477;28;19924;-73
2023/06/14 07:39:03;;;;;;;;;;;;;;;21.44;42.38;95554.63;5069497;28;20011;-73
2023/06/14 07:41:31;;;;;;;;;;;;;;;21.33;41.63;95563.72;5062116;28;19925;-73
2023/06/14 07:43:57;;;;;;;;;;;;;;;21.46;44.44;95566.63;5065693;28;19990;-73
2023/06/14 07:46:23;;;;;;;;;;;;;;;21.42;42.58;95567.16;5062464;28;19974;-73
2023/06/14 07:48:49;;;;;;;;;;;;;;;21.43;42.19;95564.38;5069555;28;20046;-73
2023/06/14 07:51:16;;;;;;;;;;;;;;;21.46;44.58;95566.63;5066866;28;19924;-74
2023/06/14 07:53:42;;;;;;;;;;;;;;;21.21;44.17;95567.63;5059343;28;19928;-73
2023/06/14 07:56:08;;;;;;;;;;;;;;;21.15;45.83;95566.50;5061714;28;20134;-73
2023/06/14 07:58:36;;;;;;;;;;;;;;;21.41;44.07;95570.78;5066720;28;19924;-73
2023/06/14 08:01:06;;;;;;;;;;;;;;;21.44;45.72;95568.63;5063310;28;19924;-74
2023/06/14 08:03:32;;;;;;;;;;;;;;;21.50;44.54;95565.31;5071157;28;19924;-74
2023/06/14 08:05:58;;;;;;;;;;;;;;;21.83;50.62;95559.94;5063563;28;19929;-73
2023/06/14 08:08:24;;;;;;;;;;;;;;;21.86;46.00;95562.22;5069765;28;19924;-72
2023/06/14 08:10:51;;;;;;;;;;;;;;;21.97;45.30;95566.31;5069471;28;19925;-73
2023/06/14 08:13:17;;;;;;;;;;;;;;;22.12;46.13;95569.03;5072498;28;20328;-72
2023/06/14 08:15:45;;;;;;;;;;;;;;;22.01;42.72;95572.06;5073797;28;19974;-74
2023/06/14 08:18:11;;;;;;;;;;;;;;;22.19;43.36;95576.13;5068515;28;19929;-73
2023/06/14 08:20:37;;;;;;;;;;;;;;;22.37;43.75;95578.50;5074355;28;19936;-73
2023/06/14 08:23:03;;;;;;;;;;;;;;;22.43;43.18;95591.00;5076597;28;20066;-73
2023/06/14 08:25:30;;;;;;;;;;;;;;;22.42;41.99;95585.88;5075752;28;19932;-72
2023/06/14 08:27:56;;;;;;;;;;;;;;;22.30;44.29;95585.47;5075760;28;20020;-71
2023/06/14 08:30:22;;;;;;;;;;;;;;;22.67;41.62;95576.81;5069100;28;20524;-71
2023/06/14 08:32:51;;;;;;;;;;;;;;;22.52;41.42;95575.94;5066001;28;19925;-71
2023/06/14 08:35:18;;;;;;;;;;;;;;;22.49;41.40;95583.38;5070723;28;19928;-72
2023/06/14 08:37:44;;;;;;;;;;;;;;;22.54;44.84;95578.41;5065662;28;19928;-72
2023/06/14 08:40:18;;;;;;;;;;;;;;;22.82;43.40;95584.00;5064853;28;19925;-72
2023/06/14 08:42:45;;;;;;;;;;;;;;;22.88;43.51;95591.22;5070468;28;19928;-72
2023/06/14 08:45:11;;;;;;;;;;;;;;;22.55;41.21;95582.69;5072188;28;20018;-72
2023/06/14 08:47:39;;;;;;;;;;;;;;;22.67;44.15;95583.94;5063461;28;19935;-72
2023/06/14 08:50:08;;;;;;;;;;;;;;;23.03;46.79;95583.38;5072014;28;19925;-72
2023/06/14 08:52:40;;;;;;;;;;;;;;;22.75;40.03;95583.03;5061577;28;19928;-72
2023/06/14 08:55:06;;;;;;;;;;;;;;;22.60;43.01;95585.63;5066527;28;19931;-72
2023/06/14 08:57:37;;;;;;;;;;;;;;;22.52;44.51;95591.78;5063892;28;20679;-72
2023/06/14 09:00:11;;;;;;;;;;;;;;;22.77;39.20;95595.09;5067127;28;19935;-72
2023/06/14 09:02:37;;;;;;;;;;;;;;;22.61;41.19;95587.25;5074806;28;20039;-72
2023/06/14 09:05:04;;;;;;;;;;;;;;;22.67;40.56;95594.50;5074059;28;20339;-72
2023/06/14 09:07:32;;;;;;;;;;;;;;;22.74;42.74;95587.50;5065910;28;19974;-71
2023/06/14 09:10:08;;;;;;;;;;;;;;;22.75;43.33;95583.03;5072042;28;20030;-71
2023/06/14 09:12:34;;;;;;;;;;;;;;;22.39;46.14;95594.97;5070186;28;19962;-72
2023/06/14 09:15:05;;;;;;;;;;;;;;;22.42;42.75;95588.53;5072903;28;19924;-70
2023/06/14 09:17:32;;;;;;;;;;;;;;;22.56;45.11;95589.59;5070317;28;19931;-71
2023/06/14 09:19:59;;;;;;;;;;;;;;;22.56;45.22;95598.34;5065749;28;19931;-73
2023/06/14 09:22:26;;;;;;;;;;;;;;;22.52;43.54;95594.41;5065833;28;19924;-73
2023/06/14 09:24:54;;;;;;;;;;;;;;;22.73;46.00;95592.94;5067852;28;19978;-72
2023/06/14 09:27:20;;;;;;;;;;;;;;;23.04;45.05;95598.22;5065559;28;19924;-72
2023/06/14 09:29:47;;;;;;;;;;;;;;;23.18;42.63;95603.53;5075482;28;20374;-72
2023/06/14 09:32:13;;;;;;;;;;;;;;;22.69;38.61;95603.88;5069717;28;19932;-72
2023/06/14 09:34:39;;;;;;;;;;;;;;;23.14;41.12;95599.63;5069666;28;19966;-72
2023/06/14 09:37:06;;;;;;;;;;;;;;;23.10;42.09;95602.75;5072153;28;19978;-73
2023/06/14 09:39:32;;;;;;;;;;;;;;;23.03;43.97;95610.59;5069566;28;19975;-72
2023/06/14 09:42:00;;;;;;;;;;;;;;;22.80;41.59;95607.91;5070363;28;19929;-73
2023/06/14 09:44:28;;;;;;;;;;;;;;;22.80;39.02;95605.28;5072474;28;19931;-73
2023/06/14 09:46:56;;;;;;;;;;;;;;;22.44;42.41;95607.66;5069975;28;19986;-72
2023/06/14 09:49:22;;;;;;;;;;;;;;;22.63;39.04;95601.13;5065854;28;20361;-72
2023/06/14 09:51:51;;;;;;;;;;;;;;;22.74;37.55;95610.44;5064151;28;19929;-71
2023/06/14 09:54:21;;;;;;;;;;;;;;;22.87;37.58;95605.41;5063821;28;19982;-71
2023/06/14 09:56:48;;;;;;;;;;;;;;;22.56;37.97;95608.09;5064205;28;19928;-71
2023/06/14 09:59:20;;;;;;;;;;;;;;;22.70;37.05;95607.34;5063877;28;19978;-71
2023/06/14 10:01:47;;;;;;;;;;;;;;;22.37;39.63;95607.53;5062283;28;19972;-71
2023/06/14 10:04:15;;;;;;;;;;;;;;;22.36;39.69;95610.31;5068276;28;20420;-71
2023/06/14 10:06:44;;;;;;;;;;;;;;;22.46;40.31;95610.94;5074794;28;20293;-72
2023/06/14 10:09:11;;;;;;;;;;;;;;;22.08;35.92;95608.13;5065771;28;19924;-72
2023/06/14 10:11:38;;;;;;;;;;;;;;;22.19;36.29;95604.31;5067995;28;19967;-72
2023/06/14 10:14:06;;;;;;;;;;;;;;;22.53;37.94;95603.97;5068925;28;20374;-72
2023/06/14 10:16:39;;;;;;;;;;;;;;;22.55;35.03;95598.53;5070841;28;19931;-71
2023/06/14 10:19:12;;;;;;;;;;;;;;;22.08;36.87;95602.03;5072827;28;20003;-71
2023/06/14 10:21:44;;;;;;;;;;;;;;;22.26;35.20;95607.91;5079757;28;20349;-71
2023/06/14 10:24:13;;;;;;;;;;;;;;;22.39;32.84;95610.81;5070737;28;19925;-71
2023/06/14 10:26:51;;;;;;;;;;;;;;;22.69;36.15;95600.41;5070638;28;19970;-71
2023/06/14 10:29:17;;;;;;;;;;;;;;;22.86;33.94;95598.47;5063834;28;19982;-71
2023/06/14 10:31:45;;;;;;;;;;;;;;;23.19;37.66;95599.06;5067423;28;19935;-71
2023/06/14 10:34:12;;;;;;;;;;;;;;;23.26;33.63;95599.19;5073808;28;19977;-71
2023/06/14 10:36:41;;;;;;;;;;;;;;;23.62;34.67;95602.78;5066418;28;19940;-72
2023/06/14 10:39:08;;;;;;;;;;;;;;;23.56;32.02;95602.69;5062656;28;19928;-71
2023/06/14 10:41:36;;;;;;;;;;;;;;;23.23;32.90;95603.00;5061821;28;19987;-71
2023/06/14 10:44:20;;;;;;;;;;;;;;;23.78;33.53;95601.81;5066385;28;19974;-71
2023/06/14 10:46:49;;;;;;;;;;;;;;;23.73;34.86;95606.00;5061565;28;19931;-71
2023/06/14 10:49:17;;;;;;;;;;;;;;;24.03;33.45;95604.16;5061523;28;19936;-72
2023/06/14 10:51:46;;;;;;;;;;;;;;;24.07;33.72;95605.47;5064112;28;20329;-72
2023/06/14 10:54:13;;;;;;;;;;;;;;;23.72;32.61;95605.19;5072630;28;20371;-71
2023/06/14 10:56:39;;;;;;;;;;;;;;;23.90;34.64;95600.34;5065080;28;20378;-71
2023/06/14 10:59:05;;;;;;;;;;;;;;;24.23;33.92;95601.78;5065896;28;19928;-71
2023/06/14 11:01:39;;;;;;;;;;;;;;;23.74;36.10;95603.19;5067247;28;19932;-71
2023/06/14 11:04:10;;;;;;;;;;;;;;;23.91;34.82;95598.53;5063908;28;19982;-71
2023/06/14 11:06:45;;;;;;;;;;;;;;;23.62;35.95;95596.66;5062826;28;20035;-71
2023/06/14 11:09:25;;;;;;;;;;;;;;;23.44;32.38;95604.97;5070398;28;19924;-74
2023/06/14 11:11:52;;;;;;;;;;;;;;;23.59;37.92;95597.03;5062542;28;19925;-73
2023/06/14 11:14:18;;;;;;;;;;;;;;;23.91;36.01;95606.47;5067501;28;19928;-71
2023/06/14 11:16:48;;;;;;;;;;;;;;;24.09;37.20;95601.63;5061714;28;19924;-71
2023/06/14 11:19:17;;;;;;;;;;;;;;;23.04;33.62;95608.78;5060878;28;19928;-72
2023/06/14 11:21:43;;;;;;;;;;;;;;;23.50;35.77;95603.41;5073744;28;20391;-71
2023/06/14 11:24:11;;;;;;;;;;;;;;;23.92;35.01;95613.41;5066496;28;19925;-71
2023/06/14 11:26:38;;;;;;;;;;;;;;;23.86;31.96;95606.19;5070595;28;19986;-72
2023/06/14 11:29:04;;;;;;;;;;;;;;;24.10;35.76;95605.94;5069723;28;19931;-71
2023/06/14 11:31:31;;;;;;;;;;;;;;;24.04;34.67;95605.84;5065790;28;19925;-71
2023/06/14 11:33:57;;;;;;;;;;;;;;;24.02;32.51;95600.72;5064703;28;20394;-71
2023/06/14 11:36:27;;;;;;;;;;;;;;;24.25;34.02;95597.97;5070475;28;19970;-71
2023/06/14 11:38:59;;;;;;;;;;;;;;;24.41;35.66;95589.00;5070994;28;20011;-71
2023/06/14 11:41:25;;;;;;;;;;;;;;;24.52;36.16;95603.59;5069934;28;20015;-71
2023/06/14 11:43:53;;;;;;;;;;;;;;;24.16;34.27;95601.72;5075840;28;20005;-70
2023/06/14 11:46:23;;;;;;;;;;;;;;;23.88;34.00;95596.28;5069794;28;19951;-71
2023/06/14 11:48:50;;;;;;;;;;;;;;;23.90;36.47;95595.06;5067840;28;19925;-71
2023/06/14 11:51:16;;;;;;;;;;;;;;;24.15;37.27;95589.50;5066608;28;19932;-71
2023/06/14 11:53:44;;;;;;;;;;;;;;;24.26;36.44;95586.38;5068694;28;20333;-71
2023/06/14 11:56:11;;;;;;;;;;;;;;;24.43;33.99;95575.56;5061038;28;20279;-71
2023/06/14 11:58:37;;;;;;;;;;;;;;;24.32;33.79;95582.13;5068709;28;20400;-72
2023/06/14 12:01:04;;;;;;;;;;;;;;;23.56;34.50;95595.56;5069284;28;19977;-73
2023/06/14 12:03:31;;;;;;;;;;;;;;;23.05;32.75;95589.28;5062084;28;20340;-74
2023/06/14 12:06:08;;;;;;;;;;;;;;;23.45;37.06;95598.66;5068066;28;19924;-73
2023/06/14 12:08:38;;;;;;;;;;;;;;;23.54;35.34;95592.28;5066464;28;20378;-74
2023/06/14 12:11:07;;;;;;;;;;;;;;;23.54;33.91;95587.00;5068860;28;20404;-73
2023/06/14 12:13:34;;;;;;;;;;;;;;;23.72;37.65;95594.59;5065993;28;20411;-70
2023/06/14 12:16:01;;;;;;;;;;;;;;;23.89;33.34;95593.44;5064492;28;19928;-72
2023/06/14 12:18:34;;;;;;;;;;;;;;;23.91;35.22;95588.75;5064860;28;19925;-74
2023/06/14 12:21:02;;;;;;;;;;;;;;;23.89;33.74;95595.25;5069462;28;19925;-76
2023/06/14 12:23:39;;;;;;;;;;;;;;;23.81;33.13;95585.59;5068184;28;20349;-74
2023/06/14 12:26:06;;;;;;;;;;;;;;;23.77;34.83;95594.06;5065541;28;19933;-72
2023/06/14 12:28:33;;;;;;;;;;;;;;;23.75;35.93;95596.91;5069285;28;19935;-73
2023/06/14 12:30:59;;;;;;;;;;;;;;;23.67;37.85;95586.41;5070323;28;19929;-69
2023/06/14 12:33:25;;;;;;;;;;;;;;;23.76;36.04;95582.66;5070456;28;20006;-73
2023/06/14 12:35:55;;;;;;;;;;;;;;;23.29;34.29;95585.63;5067949;28;20142;-72
2023/06/14 12:38:21;;;;;;;;;;;;;;;23.09;33.84;95583.44;5068482;28;19947;-71
2023/06/14 12:40:48;;;;;;;;;;;;;;;23.25;37.66;95586.94;5068903;28;19991;-70
2023/06/14 12:43:15;;;;;;;;;;;;;;;23.21;36.36;95590.94;5069561;28;19928;-71
2023/06/14 12:45:41;;;;;;;;;;;;;;;23.08;33.87;95594.22;5062075;28;19928;-71